sensor_id;sensor_type;location;lat;lon;timestamp;P1;durP1;ratioP1;P2;durP2;ratioP2
25049;SDS011;13046;49.814;9.918;2023-07-13T00:02:22;2.70;;;2.25;;
25049;SDS011;13046;49.814;9.918;2023-07-13T00:04:49;7.40;;;2.42;;
25049;SDS011;13046;49.814;9.918;2023-07-13T00:07:15;6.43;;;2.05;;
25049;SDS011;13046;49.814;9.918;2023-07-13T00:09:44;2.80;;;2.60;;
25049;SDS011;13046;49.814;9.918;2023-07-13T00:12:21;2.10;;;1.88;;
25049;SDS011;13046;49.814;9.918;2023-07-13T00:14:47;4.40;;;3.50;;
25049;SDS011;13046;49.814;9.918;2023-07-13T00:17:15;6.43;;;2.90;;
25049;SDS011;13046;49.814;9.918;2023-07-13T00:19:41;2.65;;;2.38;;
25049;SDS011;13046;49.814;9.918;2023-07-13T00:22:07;2.20;;;2.00;;
25049;SDS011;13046;49.814;9.918;2023-07-13T00:24:34;2.40;;;2.15;;
25049;SDS011;13046;49.814;9.918;2023-07-13T00:27:01;3.15;;;2.72;;
25049;SDS011;13046;49.814;9.918;2023-07-13T00:29:27;2.50;;;2.30;;
25049;SDS011;13046;49.814;9.918;2023-07-13T00:31:53;3.53;;;2.30;;
25049;SDS011;13046;49.814;9.918;2023-07-13T00:34:19;7.43;;;2.65;;
25049;SDS011;13046;49.814;9.918;2023-07-13T00:36:45;2.40;;;2.20;;
25049;SDS011;13046;49.814;9.918;2023-07-13T00:39:12;2.60;;;2.20;;
25049;SDS011;13046;49.814;9.918;2023-07-13T00:41:38;6.55;;;2.60;;
25049;SDS011;13046;49.814;9.918;2023-07-13T00:44:04;2.25;;;2.00;;
25049;SDS011;13046;49.814;9.918;2023-07-13T00:46:32;2.50;;;2.30;;
25049;SDS011;13046;49.814;9.918;2023-07-13T00:49:04;7.28;;;3.00;;
25049;SDS011;13046;49.814;9.918;2023-07-13T00:51:32;3.17;;;2.15;;
25049;SDS011;13046;49.814;9.918;2023-07-13T00:54:00;3.38;;;2.40;;
25049;SDS011;13046;49.814;9.918;2023-07-13T00:56:30;2.95;;;2.10;;
25049;SDS011;13046;49.814;9.918;2023-07-13T00:58:59;5.80;;;3.03;;
25049;SDS011;13046;49.814;9.918;2023-07-13T01:01:25;2.30;;;2.10;;
25049;SDS011;13046;49.814;9.918;2023-07-13T01:03:51;3.88;;;2.58;;
25049;SDS011;13046;49.814;9.918;2023-07-13T01:06:19;5.85;;;2.85;;
25049;SDS011;13046;49.814;9.918;2023-07-13T01:08:45;2.95;;;2.38;;
25049;SDS011;13046;49.814;9.918;2023-07-13T01:11:11;7.78;;;2.40;;
25049;SDS011;13046;49.814;9.918;2023-07-13T01:13:37;4.38;;;3.83;;
25049;SDS011;13046;49.814;9.918;2023-07-13T01:16:05;4.05;;;2.60;;
25049;SDS011;13046;49.814;9.918;2023-07-13T01:18:37;6.28;;;2.70;;
25049;SDS011;13046;49.814;9.918;2023-07-13T01:21:04;2.03;;;1.92;;
25049;SDS011;13046;49.814;9.918;2023-07-13T01:23:31;4.03;;;2.88;;
25049;SDS011;13046;49.814;9.918;2023-07-13T01:25:58;3.00;;;2.15;;
25049;SDS011;13046;49.814;9.918;2023-07-13T01:28:25;5.50;;;3.05;;
25049;SDS011;13046;49.814;9.918;2023-07-13T01:30:55;3.85;;;3.08;;
25049;SDS011;13046;49.814;9.918;2023-07-13T01:33:21;2.97;;;2.42;;
25049;SDS011;13046;49.814;9.918;2023-07-13T01:35:48;9.25;;;4.22;;
25049;SDS011;13046;49.814;9.918;2023-07-13T01:38:16;2.42;;;2.05;;
25049;SDS011;13046;49.814;9.918;2023-07-13T01:40:43;3.85;;;2.67;;
25049;SDS011;13046;49.814;9.918;2023-07-13T01:43:10;5.18;;;2.95;;
25049;SDS011;13046;49.814;9.918;2023-07-13T01:45:36;3.05;;;2.70;;
25049;SDS011;13046;49.814;9.918;2023-07-13T01:48:02;3.40;;;2.60;;
25049;SDS011;13046;49.814;9.918;2023-07-13T01:50:28;5.68;;;2.60;;
25049;SDS011;13046;49.814;9.918;2023-07-13T01:52:54;7.00;;;3.60;;
25049;SDS011;13046;49.814;9.918;2023-07-13T01:55:20;3.33;;;3.03;;
25049;SDS011;13046;49.814;9.918;2023-07-13T01:57:47;2.58;;;2.38;;
25049;SDS011;13046;49.814;9.918;2023-07-13T02:00:13;2.88;;;2.53;;
25049;SDS011;13046;49.814;9.918;2023-07-13T02:02:45;4.60;;;2.63;;
25049;SDS011;13046;49.814;9.918;2023-07-13T02:05:11;2.72;;;2.40;;
25049;SDS011;13046;49.814;9.918;2023-07-13T02:07:38;4.53;;;2.88;;
25049;SDS011;13046;49.814;9.918;2023-07-13T02:10:04;3.13;;;2.67;;
25049;SDS011;13046;49.814;9.918;2023-07-13T02:12:30;4.25;;;2.63;;
25049;SDS011;13046;49.814;9.918;2023-07-13T02:14:57;4.60;;;2.90;;
25049;SDS011;13046;49.814;9.918;2023-07-13T02:17:23;5.32;;;2.83;;
25049;SDS011;13046;49.814;9.918;2023-07-13T02:19:50;2.58;;;2.38;;
25049;SDS011;13046;49.814;9.918;2023-07-13T02:22:16;3.65;;;2.60;;
25049;SDS011;13046;49.814;9.918;2023-07-13T02:24:42;3.28;;;2.63;;
25049;SDS011;13046;49.814;9.918;2023-07-13T02:27:07;3.38;;;2.83;;
25049;SDS011;13046;49.814;9.918;2023-07-13T02:29:33;2.53;;;2.33;;
25049;SDS011;13046;49.814;9.918;2023-07-13T02:31:59;7.15;;;3.88;;
25049;SDS011;13046;49.814;9.918;2023-07-13T02:34:24;10.07;;;4.18;;
25049;SDS011;13046;49.814;9.918;2023-07-13T02:36:50;3.40;;;2.95;;
25049;SDS011;13046;49.814;9.918;2023-07-13T02:39:16;3.15;;;2.75;;
25049;SDS011;13046;49.814;9.918;2023-07-13T02:41:41;4.95;;;3.00;;
25049;SDS011;13046;49.814;9.918;2023-07-13T02:44:07;3.95;;;2.78;;
25049;SDS011;13046;49.814;9.918;2023-07-13T02:46:34;3.60;;;3.20;;
25049;SDS011;13046;49.814;9.918;2023-07-13T02:49:01;4.35;;;2.97;;
25049;SDS011;13046;49.814;9.918;2023-07-13T02:51:27;4.47;;;4.07;;
25049;SDS011;13046;49.814;9.918;2023-07-13T02:53:52;3.60;;;3.10;;
25049;SDS011;13046;49.814;9.918;2023-07-13T02:56:21;4.00;;;2.97;;
25049;SDS011;13046;49.814;9.918;2023-07-13T02:58:48;6.65;;;2.85;;
25049;SDS011;13046;49.814;9.918;2023-07-13T03:01:14;3.53;;;2.95;;
25049;SDS011;13046;49.814;9.918;2023-07-13T03:03:44;3.67;;;2.45;;
25049;SDS011;13046;49.814;9.918;2023-07-13T03:06:11;7.68;;;2.83;;
25049;SDS011;13046;49.814;9.918;2023-07-13T03:11:12;3.38;;;2.25;;
25049;SDS011;13046;49.814;9.918;2023-07-13T03:13:42;3.10;;;2.80;;
25049;SDS011;13046;49.814;9.918;2023-07-13T03:16:09;3.03;;;2.78;;
25049;SDS011;13046;49.814;9.918;2023-07-13T03:18:36;4.25;;;2.90;;
25049;SDS011;13046;49.814;9.918;2023-07-13T03:21:05;3.33;;;3.03;;
25049;SDS011;13046;49.814;9.918;2023-07-13T03:23:31;4.38;;;3.63;;
25049;SDS011;13046;49.814;9.918;2023-07-13T03:26:02;3.90;;;2.58;;
25049;SDS011;13046;49.814;9.918;2023-07-13T03:28:28;2.90;;;2.70;;
25049;SDS011;13046;49.814;9.918;2023-07-13T03:31:02;7.97;;;3.67;;
25049;SDS011;13046;49.814;9.918;2023-07-13T03:33:31;3.00;;;2.70;;
25049;SDS011;13046;49.814;9.918;2023-07-13T03:35:56;3.08;;;2.63;;
25049;SDS011;13046;49.814;9.918;2023-07-13T03:38:23;5.05;;;3.38;;
25049;SDS011;13046;49.814;9.918;2023-07-13T03:40:49;3.05;;;2.75;;
25049;SDS011;13046;49.814;9.918;2023-07-13T03:43:16;3.03;;;2.72;;
25049;SDS011;13046;49.814;9.918;2023-07-13T03:45:41;5.13;;;2.88;;
25049;SDS011;13046;49.814;9.918;2023-07-13T03:48:07;2.95;;;2.60;;
25049;SDS011;13046;49.814;9.918;2023-07-13T03:50:33;5.80;;;3.15;;
25049;SDS011;13046;49.814;9.918;2023-07-13T03:52:59;4.40;;;2.90;;
25049;SDS011;13046;49.814;9.918;2023-07-13T03:55:25;5.20;;;3.33;;
25049;SDS011;13046;49.814;9.918;2023-07-13T03:57:53;3.20;;;2.90;;
25049;SDS011;13046;49.814;9.918;2023-07-13T04:00:23;3.33;;;3.03;;
25049;SDS011;13046;49.814;9.918;2023-07-13T04:02:52;6.90;;;3.08;;
25049;SDS011;13046;49.814;9.918;2023-07-13T04:05:18;5.05;;;4.25;;
25049;SDS011;13046;49.814;9.918;2023-07-13T04:07:45;4.47;;;3.13;;
25049;SDS011;13046;49.814;9.918;2023-07-13T04:10:10;6.22;;;2.92;;
25049;SDS011;13046;49.814;9.918;2023-07-13T04:12:36;4.40;;;2.80;;
25049;SDS011;13046;49.814;9.918;2023-07-13T04:15:02;3.70;;;2.83;;
25049;SDS011;13046;49.814;9.918;2023-07-13T04:17:28;6.15;;;2.90;;
25049;SDS011;13046;49.814;9.918;2023-07-13T04:19:54;4.07;;;3.47;;
25049;SDS011;13046;49.814;9.918;2023-07-13T04:22:20;3.72;;;2.90;;
25049;SDS011;13046;49.814;9.918;2023-07-13T04:24:45;3.30;;;3.00;;
25049;SDS011;13046;49.814;9.918;2023-07-13T04:27:11;4.95;;;3.50;;
25049;SDS011;13046;49.814;9.918;2023-07-13T04:29:36;4.63;;;3.53;;
25049;SDS011;13046;49.814;9.918;2023-07-13T04:32:02;4.50;;;2.88;;
25049;SDS011;13046;49.814;9.918;2023-07-13T04:34:28;4.45;;;2.88;;
25049;SDS011;13046;49.814;9.918;2023-07-13T04:36:53;7.15;;;2.88;;
25049;SDS011;13046;49.814;9.918;2023-07-13T04:39:19;4.85;;;3.17;;
25049;SDS011;13046;49.814;9.918;2023-07-13T04:41:45;4.22;;;3.25;;
25049;SDS011;13046;49.814;9.918;2023-07-13T04:44:11;3.88;;;3.13;;
25049;SDS011;13046;49.814;9.918;2023-07-13T04:46:37;5.55;;;3.05;;
25049;SDS011;13046;49.814;9.918;2023-07-13T04:49:03;3.70;;;2.70;;
25049;SDS011;13046;49.814;9.918;2023-07-13T04:51:29;3.55;;;2.55;;
25049;SDS011;13046;49.814;9.918;2023-07-13T04:53:55;4.30;;;2.47;;
25049;SDS011;13046;49.814;9.918;2023-07-13T04:56:20;5.13;;;4.13;;
25049;SDS011;13046;49.814;9.918;2023-07-13T04:58:46;5.72;;;2.53;;
25049;SDS011;13046;49.814;9.918;2023-07-13T05:01:11;5.18;;;2.83;;
25049;SDS011;13046;49.814;9.918;2023-07-13T05:03:38;5.72;;;2.83;;
25049;SDS011;13046;49.814;9.918;2023-07-13T05:06:07;4.13;;;2.85;;
25049;SDS011;13046;49.814;9.918;2023-07-13T05:08:36;3.38;;;3.00;;
25049;SDS011;13046;49.814;9.918;2023-07-13T05:11:02;2.85;;;2.58;;
25049;SDS011;13046;49.814;9.918;2023-07-13T05:13:29;2.53;;;2.15;;
25049;SDS011;13046;49.814;9.918;2023-07-13T05:15:59;4.70;;;2.55;;
25049;SDS011;13046;49.814;9.918;2023-07-13T05:18:26;7.47;;;3.20;;
25049;SDS011;13046;49.814;9.918;2023-07-13T05:21:06;4.60;;;2.47;;
25049;SDS011;13046;49.814;9.918;2023-07-13T05:23:34;3.47;;;2.20;;
25049;SDS011;13046;49.814;9.918;2023-07-13T05:26:00;7.72;;;3.60;;
25049;SDS011;13046;49.814;9.918;2023-07-13T05:28:27;5.00;;;2.80;;
25049;SDS011;13046;49.814;9.918;2023-07-13T05:30:53;2.10;;;1.85;;
25049;SDS011;13046;49.814;9.918;2023-07-13T05:33:20;2.40;;;2.15;;
25049;SDS011;13046;49.814;9.918;2023-07-13T05:35:46;4.50;;;2.65;;
25049;SDS011;13046;49.814;9.918;2023-07-13T05:38:12;2.53;;;2.00;;
25049;SDS011;13046;49.814;9.918;2023-07-13T05:40:38;4.25;;;2.10;;
25049;SDS011;13046;49.814;9.918;2023-07-13T05:43:03;3.67;;;2.17;;
25049;SDS011;13046;49.814;9.918;2023-07-13T05:45:29;4.57;;;2.28;;
25049;SDS011;13046;49.814;9.918;2023-07-13T05:47:54;7.03;;;3.88;;
25049;SDS011;13046;49.814;9.918;2023-07-13T05:50:20;4.35;;;2.97;;
25049;SDS011;13046;49.814;9.918;2023-07-13T05:52:46;5.38;;;2.10;;
25049;SDS011;13046;49.814;9.918;2023-07-13T05:55:12;2.83;;;2.10;;
25049;SDS011;13046;49.814;9.918;2023-07-13T05:57:38;5.15;;;2.15;;
25049;SDS011;13046;49.814;9.918;2023-07-13T06:00:04;3.40;;;1.70;;
25049;SDS011;13046;49.814;9.918;2023-07-13T06:02:37;3.15;;;2.10;;
25049;SDS011;13046;49.814;9.918;2023-07-13T06:05:02;3.33;;;1.95;;
25049;SDS011;13046;49.814;9.918;2023-07-13T06:07:28;5.57;;;1.75;;
25049;SDS011;13046;49.814;9.918;2023-07-13T06:09:54;7.22;;;2.40;;
25049;SDS011;13046;49.814;9.918;2023-07-13T06:12:20;4.20;;;1.88;;
25049;SDS011;13046;49.814;9.918;2023-07-13T06:14:46;3.30;;;1.52;;
25049;SDS011;13046;49.814;9.918;2023-07-13T06:17:12;3.35;;;1.75;;
25049;SDS011;13046;49.814;9.918;2023-07-13T06:19:37;3.95;;;1.48;;
25049;SDS011;13046;49.814;9.918;2023-07-13T06:22:03;4.88;;;2.03;;
25049;SDS011;13046;49.814;9.918;2023-07-13T06:24:29;3.47;;;1.60;;
25049;SDS011;13046;49.814;9.918;2023-07-13T06:26:55;6.65;;;3.30;;
25049;SDS011;13046;49.814;9.918;2023-07-13T06:29:21;4.50;;;1.75;;
25049;SDS011;13046;49.814;9.918;2023-07-13T06:31:46;3.88;;;1.90;;
25049;SDS011;13046;49.814;9.918;2023-07-13T06:34:12;3.05;;;2.13;;
25049;SDS011;13046;49.814;9.918;2023-07-13T06:36:37;4.55;;;2.50;;
25049;SDS011;13046;49.814;9.918;2023-07-13T06:39:03;8.48;;;1.65;;
25049;SDS011;13046;49.814;9.918;2023-07-13T06:41:29;2.67;;;1.48;;
25049;SDS011;13046;49.814;9.918;2023-07-13T06:43:57;3.60;;;1.95;;
25049;SDS011;13046;49.814;9.918;2023-07-13T06:46:22;2.58;;;1.67;;
25049;SDS011;13046;49.814;9.918;2023-07-13T06:48:49;7.20;;;1.90;;
25049;SDS011;13046;49.814;9.918;2023-07-13T06:51:15;6.60;;;2.60;;
25049;SDS011;13046;49.814;9.918;2023-07-13T06:53:41;4.25;;;1.73;;
25049;SDS011;13046;49.814;9.918;2023-07-13T06:56:10;3.72;;;2.28;;
25049;SDS011;13046;49.814;9.918;2023-07-13T06:58:36;2.15;;;1.50;;
25049;SDS011;13046;49.814;9.918;2023-07-13T07:01:03;5.70;;;1.70;;
25049;SDS011;13046;49.814;9.918;2023-07-13T07:03:29;5.18;;;1.60;;
25049;SDS011;13046;49.814;9.918;2023-07-13T07:06:03;4.25;;;1.70;;
25049;SDS011;13046;49.814;9.918;2023-07-13T07:08:31;2.45;;;1.33;;
25049;SDS011;13046;49.814;9.918;2023-07-13T07:10:57;3.42;;;1.15;;
25049;SDS011;13046;49.814;9.918;2023-07-13T07:13:24;1.92;;;1.30;;
25049;SDS011;13046;49.814;9.918;2023-07-13T07:15:50;4.05;;;1.65;;
25049;SDS011;13046;49.814;9.918;2023-07-13T07:18:17;2.83;;;1.30;;
25049;SDS011;13046;49.814;9.918;2023-07-13T07:20:43;3.45;;;1.90;;
25049;SDS011;13046;49.814;9.918;2023-07-13T07:23:09;4.72;;;1.27;;
25049;SDS011;13046;49.814;9.918;2023-07-13T07:25:35;3.53;;;1.40;;
25049;SDS011;13046;49.814;9.918;2023-07-13T07:28:06;3.72;;;1.45;;
25049;SDS011;13046;49.814;9.918;2023-07-13T07:30:32;9.25;;;2.17;;
25049;SDS011;13046;49.814;9.918;2023-07-13T07:32:58;2.45;;;1.30;;
25049;SDS011;13046;49.814;9.918;2023-07-13T07:35:24;2.00;;;1.67;;
25049;SDS011;13046;49.814;9.918;2023-07-13T07:37:51;3.58;;;1.45;;
25049;SDS011;13046;49.814;9.918;2023-07-13T07:40:17;4.70;;;2.28;;
25049;SDS011;13046;49.814;9.918;2023-07-13T07:42:43;4.20;;;1.60;;
25049;SDS011;13046;49.814;9.918;2023-07-13T07:45:09;3.20;;;1.60;;
25049;SDS011;13046;49.814;9.918;2023-07-13T07:47:36;3.28;;;1.55;;
25049;SDS011;13046;49.814;9.918;2023-07-13T07:50:03;3.72;;;1.80;;
25049;SDS011;13046;49.814;9.918;2023-07-13T07:52:29;3.90;;;1.67;;
25049;SDS011;13046;49.814;9.918;2023-07-13T07:54:55;1.80;;;1.10;;
25049;SDS011;13046;49.814;9.918;2023-07-13T07:57:21;2.88;;;1.40;;
25049;SDS011;13046;49.814;9.918;2023-07-13T07:59:47;3.67;;;1.38;;
25049;SDS011;13046;49.814;9.918;2023-07-13T08:02:13;5.13;;;1.20;;
25049;SDS011;13046;49.814;9.918;2023-07-13T08:04:39;1.55;;;1.45;;
25049;SDS011;13046;49.814;9.918;2023-07-13T08:07:05;3.47;;;1.27;;
25049;SDS011;13046;49.814;9.918;2023-07-13T08:09:31;3.20;;;1.42;;
25049;SDS011;13046;49.814;9.918;2023-07-13T08:11:57;1.98;;;1.38;;
25049;SDS011;13046;49.814;9.918;2023-07-13T08:14:23;1.73;;;1.20;;
25049;SDS011;13046;49.814;9.918;2023-07-13T08:16:49;3.08;;;1.15;;
25049;SDS011;13046;49.814;9.918;2023-07-13T08:19:15;2.55;;;1.20;;
25049;SDS011;13046;49.814;9.918;2023-07-13T08:21:41;1.95;;;1.35;;
25049;SDS011;13046;49.814;9.918;2023-07-13T08:24:08;5.25;;;1.48;;
25049;SDS011;13046;49.814;9.918;2023-07-13T08:26:34;3.25;;;1.52;;
25049;SDS011;13046;49.814;9.918;2023-07-13T08:29:00;3.45;;;2.00;;
25049;SDS011;13046;49.814;9.918;2023-07-13T08:31:27;6.55;;;1.33;;
25049;SDS011;13046;49.814;9.918;2023-07-13T08:33:53;4.68;;;1.50;;
25049;SDS011;13046;49.814;9.918;2023-07-13T08:36:19;3.20;;;1.55;;
25049;SDS011;13046;49.814;9.918;2023-07-13T08:38:45;4.30;;;1.55;;
25049;SDS011;13046;49.814;9.918;2023-07-13T08:41:15;2.75;;;1.60;;
25049;SDS011;13046;49.814;9.918;2023-07-13T08:43:42;5.60;;;2.22;;
25049;SDS011;13046;49.814;9.918;2023-07-13T08:46:13;3.78;;;2.88;;
25049;SDS011;13046;49.814;9.918;2023-07-13T08:53:58;3.90;;;1.70;;
25049;SDS011;13046;49.814;9.918;2023-07-13T08:56:25;1.80;;;1.30;;
25049;SDS011;13046;49.814;9.918;2023-07-13T08:58:55;2.85;;;1.80;;
25049;SDS011;13046;49.814;9.918;2023-07-13T09:01:28;5.40;;;1.98;;
25049;SDS011;13046;49.814;9.918;2023-07-13T09:06:27;5.07;;;2.08;;
25049;SDS011;13046;49.814;9.918;2023-07-13T09:08:58;6.00;;;2.75;;
25049;SDS011;13046;49.814;9.918;2023-07-13T09:16:46;3.67;;;1.67;;
25049;SDS011;13046;49.814;9.918;2023-07-13T09:19:18;1.85;;;1.40;;
25049;SDS011;13046;49.814;9.918;2023-07-13T09:21:47;4.47;;;2.00;;
25049;SDS011;13046;49.814;9.918;2023-07-13T09:24:24;6.93;;;2.80;;
25049;SDS011;13046;49.814;9.918;2023-07-13T09:26:52;2.53;;;1.67;;
25049;SDS011;13046;49.814;9.918;2023-07-13T09:29:21;4.13;;;1.38;;
25049;SDS011;13046;49.814;9.918;2023-07-13T09:31:49;4.28;;;1.65;;
25049;SDS011;13046;49.814;9.918;2023-07-13T09:34:17;3.00;;;1.33;;
25049;SDS011;13046;49.814;9.918;2023-07-13T09:36:43;2.65;;;1.38;;
25049;SDS011;13046;49.814;9.918;2023-07-13T09:39:15;5.45;;;1.98;;
25049;SDS011;13046;49.814;9.918;2023-07-13T09:44:16;3.30;;;1.52;;
25049;SDS011;13046;49.814;9.918;2023-07-13T09:46:44;3.78;;;2.03;;
25049;SDS011;13046;49.814;9.918;2023-07-13T09:49:11;7.82;;;2.92;;
25049;SDS011;13046;49.814;9.918;2023-07-13T09:51:38;5.95;;;1.58;;
25049;SDS011;13046;49.814;9.918;2023-07-13T09:54:09;4.88;;;1.67;;
25049;SDS011;13046;49.814;9.918;2023-07-13T09:56:42;3.22;;;1.80;;
25049;SDS011;13046;49.814;9.918;2023-07-13T09:59:23;4.40;;;2.53;;
25049;SDS011;13046;49.814;9.918;2023-07-13T10:01:49;2.40;;;2.00;;
25049;SDS011;13046;49.814;9.918;2023-07-13T10:04:19;5.18;;;1.80;;
25049;SDS011;13046;49.814;9.918;2023-07-13T10:06:46;3.55;;;1.45;;
25049;SDS011;13046;49.814;9.918;2023-07-13T10:09:18;3.85;;;1.95;;
25049;SDS011;13046;49.814;9.918;2023-07-13T10:11:44;4.60;;;1.98;;
25049;SDS011;13046;49.814;9.918;2023-07-13T10:14:12;4.57;;;2.33;;
25049;SDS011;13046;49.814;9.918;2023-07-13T10:16:38;3.70;;;1.50;;
25049;SDS011;13046;49.814;9.918;2023-07-13T10:19:13;2.58;;;1.52;;
25049;SDS011;13046;49.814;9.918;2023-07-13T10:21:59;3.25;;;1.75;;
25049;SDS011;13046;49.814;9.918;2023-07-13T10:24:27;4.07;;;1.70;;
25049;SDS011;13046;49.814;9.918;2023-07-13T10:29:39;4.45;;;1.98;;
25049;SDS011;13046;49.814;9.918;2023-07-13T10:32:11;3.47;;;2.40;;
25049;SDS011;13046;49.814;9.918;2023-07-13T10:34:38;2.35;;;1.40;;
25049;SDS011;13046;49.814;9.918;2023-07-13T10:37:05;2.30;;;1.40;;
25049;SDS011;13046;49.814;9.918;2023-07-13T10:39:31;3.63;;;2.10;;
25049;SDS011;13046;49.814;9.918;2023-07-13T10:41:59;3.90;;;1.98;;
25049;SDS011;13046;49.814;9.918;2023-07-13T10:44:31;3.35;;;1.70;;
25049;SDS011;13046;49.814;9.918;2023-07-13T10:47:01;3.20;;;1.80;;
25049;SDS011;13046;49.814;9.918;2023-07-13T10:49:28;3.58;;;2.22;;
25049;SDS011;13046;49.814;9.918;2023-07-13T10:51:54;4.43;;;1.40;;
25049;SDS011;13046;49.814;9.918;2023-07-13T10:54:42;2.25;;;2.08;;
25049;SDS011;13046;49.814;9.918;2023-07-13T10:57:13;3.50;;;1.63;;
25049;SDS011;13046;49.814;9.918;2023-07-13T10:59:41;3.45;;;1.35;;
25049;SDS011;13046;49.814;9.918;2023-07-13T11:02:25;2.53;;;1.50;;
25049;SDS011;13046;49.814;9.918;2023-07-13T11:04:52;3.15;;;1.50;;
25049;SDS011;13046;49.814;9.918;2023-07-13T11:07:23;2.28;;;1.40;;
25049;SDS011;13046;49.814;9.918;2023-07-13T11:09:53;4.30;;;1.55;;
25049;SDS011;13046;49.814;9.918;2023-07-13T11:19:54;2.38;;;1.45;;
25049;SDS011;13046;49.814;9.918;2023-07-13T11:22:41;4.55;;;1.50;;
25049;SDS011;13046;49.814;9.918;2023-07-13T11:25:25;3.95;;;1.60;;
25049;SDS011;13046;49.814;9.918;2023-07-13T11:28:14;3.08;;;1.45;;
25049;SDS011;13046;49.814;9.918;2023-07-13T11:33:24;3.17;;;1.63;;
25049;SDS011;13046;49.814;9.918;2023-07-13T11:38:32;5.07;;;1.67;;
25049;SDS011;13046;49.814;9.918;2023-07-13T11:40:59;5.13;;;2.13;;
25049;SDS011;13046;49.814;9.918;2023-07-13T11:43:29;2.45;;;1.55;;
25049;SDS011;13046;49.814;9.918;2023-07-13T11:45:55;4.45;;;2.42;;
25049;SDS011;13046;49.814;9.918;2023-07-13T11:48:23;4.95;;;1.63;;
25049;SDS011;13046;49.814;9.918;2023-07-13T11:50:59;3.28;;;1.30;;
25049;SDS011;13046;49.814;9.918;2023-07-13T11:53:28;2.33;;;1.70;;
25049;SDS011;13046;49.814;9.918;2023-07-13T11:55:55;3.67;;;1.67;;
25049;SDS011;13046;49.814;9.918;2023-07-13T11:58:23;2.67;;;1.63;;
25049;SDS011;13046;49.814;9.918;2023-07-13T12:00:49;3.53;;;2.10;;
25049;SDS011;13046;49.814;9.918;2023-07-13T12:03:18;5.45;;;2.15;;
25049;SDS011;13046;49.814;9.918;2023-07-13T12:06:01;4.57;;;1.60;;
25049;SDS011;13046;49.814;9.918;2023-07-13T12:08:28;2.35;;;1.80;;
25049;SDS011;13046;49.814;9.918;2023-07-13T12:11:03;4.57;;;1.50;;
25049;SDS011;13046;49.814;9.918;2023-07-13T12:13:34;6.85;;;1.65;;
25049;SDS011;13046;49.814;9.918;2023-07-13T12:16:00;3.75;;;1.27;;
25049;SDS011;13046;49.814;9.918;2023-07-13T12:18:30;3.30;;;1.45;;
25049;SDS011;13046;49.814;9.918;2023-07-13T12:20:57;2.97;;;1.45;;
25049;SDS011;13046;49.814;9.918;2023-07-13T12:25:50;4.22;;;2.15;;
25049;SDS011;13046;49.814;9.918;2023-07-13T12:28:33;3.65;;;1.85;;
25049;SDS011;13046;49.814;9.918;2023-07-13T12:31:00;4.53;;;2.25;;
25049;SDS011;13046;49.814;9.918;2023-07-13T12:33:27;3.00;;;1.50;;
25049;SDS011;13046;49.814;9.918;2023-07-13T12:35:54;5.35;;;1.58;;
25049;SDS011;13046;49.814;9.918;2023-07-13T12:38:20;3.60;;;1.80;;
25049;SDS011;13046;49.814;9.918;2023-07-13T12:40:48;3.67;;;1.80;;
25049;SDS011;13046;49.814;9.918;2023-07-13T12:43:15;5.57;;;1.85;;
25049;SDS011;13046;49.814;9.918;2023-07-13T12:48:41;3.00;;;1.55;;
25049;SDS011;13046;49.814;9.918;2023-07-13T12:51:10;4.88;;;1.23;;
25049;SDS011;13046;49.814;9.918;2023-07-13T12:53:40;7.93;;;2.78;;
25049;SDS011;13046;49.814;9.918;2023-07-13T12:56:08;8.38;;;1.90;;
25049;SDS011;13046;49.814;9.918;2023-07-13T12:58:39;5.80;;;1.80;;
25049;SDS011;13046;49.814;9.918;2023-07-13T13:01:10;4.15;;;1.20;;
25049;SDS011;13046;49.814;9.918;2023-07-13T13:03:45;3.33;;;1.83;;
25049;SDS011;13046;49.814;9.918;2023-07-13T13:08:45;2.58;;;1.20;;
25049;SDS011;13046;49.814;9.918;2023-07-13T13:11:11;4.40;;;2.60;;
25049;SDS011;13046;49.814;9.918;2023-07-13T13:13:41;2.38;;;1.55;;
25049;SDS011;13046;49.814;9.918;2023-07-13T13:16:18;5.30;;;2.88;;
25049;SDS011;13046;49.814;9.918;2023-07-13T13:18:45;4.68;;;2.22;;
25049;SDS011;13046;49.814;9.918;2023-07-13T13:21:11;2.47;;;1.52;;
25049;SDS011;13046;49.814;9.918;2023-07-13T13:23:37;3.17;;;1.88;;
25049;SDS011;13046;49.814;9.918;2023-07-13T13:26:05;11.10;;;1.90;;
25049;SDS011;13046;49.814;9.918;2023-07-13T13:28:33;3.28;;;1.55;;
25049;SDS011;13046;49.814;9.918;2023-07-13T13:30:59;5.05;;;2.30;;
25049;SDS011;13046;49.814;9.918;2023-07-13T13:33:25;4.20;;;1.65;;
25049;SDS011;13046;49.814;9.918;2023-07-13T13:35:51;3.70;;;1.70;;
25049;SDS011;13046;49.814;9.918;2023-07-13T13:38:19;4.68;;;1.70;;
25049;SDS011;13046;49.814;9.918;2023-07-13T13:40:46;3.83;;;2.10;;
25049;SDS011;13046;49.814;9.918;2023-07-13T13:43:21;5.88;;;1.80;;
25049;SDS011;13046;49.814;9.918;2023-07-13T13:45:51;1.63;;;1.40;;
25049;SDS011;13046;49.814;9.918;2023-07-13T13:48:17;4.72;;;1.58;;
25049;SDS011;13046;49.814;9.918;2023-07-13T13:50:44;3.28;;;1.80;;
25049;SDS011;13046;49.814;9.918;2023-07-13T13:53:10;2.22;;;1.60;;
25049;SDS011;13046;49.814;9.918;2023-07-13T13:55:38;2.45;;;1.38;;
25049;SDS011;13046;49.814;9.918;2023-07-13T13:58:04;2.72;;;1.60;;
25049;SDS011;13046;49.814;9.918;2023-07-13T14:00:31;5.30;;;2.70;;
25049;SDS011;13046;49.814;9.918;2023-07-13T14:02:57;3.50;;;1.83;;
25049;SDS011;13046;49.814;9.918;2023-07-13T14:05:24;1.52;;;1.40;;
25049;SDS011;13046;49.814;9.918;2023-07-13T14:07:51;2.92;;;2.10;;
25049;SDS011;13046;49.814;9.918;2023-07-13T14:10:18;2.42;;;1.60;;
25049;SDS011;13046;49.814;9.918;2023-07-13T14:12:51;1.80;;;1.42;;
25049;SDS011;13046;49.814;9.918;2023-07-13T14:15:20;6.82;;;2.10;;
25049;SDS011;13046;49.814;9.918;2023-07-13T14:17:46;4.40;;;2.15;;
25049;SDS011;13046;49.814;9.918;2023-07-13T14:20:16;7.43;;;1.80;;
25049;SDS011;13046;49.814;9.918;2023-07-13T14:22:42;3.97;;;1.83;;
25049;SDS011;13046;49.814;9.918;2023-07-13T14:25:13;6.85;;;1.83;;
25049;SDS011;13046;49.814;9.918;2023-07-13T14:27:40;3.67;;;2.00;;
25049;SDS011;13046;49.814;9.918;2023-07-13T14:30:16;5.22;;;2.00;;
25049;SDS011;13046;49.814;9.918;2023-07-13T14:32:42;2.30;;;1.80;;
25049;SDS011;13046;49.814;9.918;2023-07-13T14:35:16;2.45;;;1.38;;
25049;SDS011;13046;49.814;9.918;2023-07-13T14:37:42;4.90;;;1.73;;
25049;SDS011;13046;49.814;9.918;2023-07-13T14:40:15;4.78;;;1.77;;
25049;SDS011;13046;49.814;9.918;2023-07-13T14:42:41;3.75;;;1.67;;
25049;SDS011;13046;49.814;9.918;2023-07-13T14:45:12;4.20;;;1.70;;
25049;SDS011;13046;49.814;9.918;2023-07-13T14:47:39;5.20;;;1.60;;
25049;SDS011;13046;49.814;9.918;2023-07-13T14:50:07;5.18;;;1.73;;
25049;SDS011;13046;49.814;9.918;2023-07-13T14:52:37;13.77;;;3.30;;
25049;SDS011;13046;49.814;9.918;2023-07-13T14:55:04;3.85;;;1.67;;
25049;SDS011;13046;49.814;9.918;2023-07-13T14:57:30;2.30;;;1.60;;
25049;SDS011;13046;49.814;9.918;2023-07-13T14:59:56;2.47;;;1.85;;
25049;SDS011;13046;49.814;9.918;2023-07-13T15:02:27;5.90;;;2.22;;
25049;SDS011;13046;49.814;9.918;2023-07-13T15:04:54;5.22;;;2.55;;
25049;SDS011;13046;49.814;9.918;2023-07-13T15:07:20;3.17;;;1.95;;
25049;SDS011;13046;49.814;9.918;2023-07-13T15:09:49;2.95;;;2.55;;
25049;SDS011;13046;49.814;9.918;2023-07-13T15:12:16;4.05;;;2.65;;
25049;SDS011;13046;49.814;9.918;2023-07-13T15:14:42;4.32;;;2.45;;
25049;SDS011;13046;49.814;9.918;2023-07-13T15:17:26;4.57;;;2.10;;
25049;SDS011;13046;49.814;9.918;2023-07-13T15:19:53;4.53;;;2.00;;
25049;SDS011;13046;49.814;9.918;2023-07-13T15:22:21;2.65;;;2.20;;
25049;SDS011;13046;49.814;9.918;2023-07-13T15:24:47;4.80;;;2.33;;
25049;SDS011;13046;49.814;9.918;2023-07-13T15:27:13;4.05;;;2.67;;
25049;SDS011;13046;49.814;9.918;2023-07-13T15:29:39;1.83;;;1.45;;
25049;SDS011;13046;49.814;9.918;2023-07-13T15:32:16;6.18;;;2.00;;
25049;SDS011;13046;49.814;9.918;2023-07-13T15:34:44;4.03;;;2.20;;